createdAt,value
2022-11-26T00:00:51.862Z,9.711722
2022-11-26T00:01:51.856Z,9.711601
2022-11-26T00:02:51.964Z,9.711568
2022-11-26T00:03:51.814Z,9.711637
2022-11-26T00:04:51.810Z,9.711763
2022-11-26T00:05:51.802Z,9.711777
2022-11-26T00:06:51.790Z,9.711781
2022-11-26T00:07:51.815Z,9.711493
2022-11-26T00:08:51.785Z,9.711526
2022-11-26T00:09:51.767Z,9.711635
2022-11-26T00:10:51.761Z,9.711655
2022-11-26T00:11:51.755Z,9.711717
2022-11-26T00:12:51.735Z,9.711860
2022-11-26T00:13:51.786Z,9.711874
2022-11-26T00:14:51.725Z,9.711871
2022-11-26T00:15:51.716Z,9.711776
2022-11-26T00:16:52.058Z,9.711972
2022-11-26T00:17:52.494Z,9.712131
2022-11-26T00:18:51.687Z,9.711985
2022-11-26T00:19:51.687Z,9.712049
2022-11-26T00:20:51.664Z,9.711843
2022-11-26T00:21:52.689Z,9.711783
2022-11-26T00:22:51.684Z,9.711782
2022-11-26T00:23:53.486Z,9.711801
2022-11-26T00:24:51.647Z,9.711729
2022-11-26T00:25:51.637Z,9.711700
2022-11-26T00:26:51.618Z,9.711557
2022-11-26T00:46:37.285Z,9.711583
2022-11-26T00:47:37.765Z,9.711684
2022-11-26T00:48:37.306Z,9.711690
2022-11-26T00:49:37.254Z,9.711679
2022-11-26T00:50:37.249Z,9.711734
2022-11-26T00:51:37.251Z,9.711668
2022-11-26T00:52:37.258Z,9.711701
2022-11-26T00:53:37.222Z,9.711658
2022-11-26T00:54:38.473Z,9.711672
2022-11-26T00:55:37.215Z,9.711711
2022-11-26T00:56:38.314Z,9.711688
2022-11-26T01:01:45.668Z,9.712392
2022-11-26T01:02:45.621Z,9.712996
2022-11-26T01:03:45.562Z,9.712366
2022-11-26T01:04:45.526Z,9.711674
2022-11-26T01:05:45.513Z,9.711588
2022-11-26T01:06:45.505Z,9.711596
2022-11-26T01:07:45.595Z,9.711614
2022-11-26T01:08:45.497Z,9.711630
2022-11-26T01:09:45.492Z,9.711638
2022-11-26T01:10:46.520Z,9.711638
2022-11-26T01:11:47.847Z,9.711675
2022-11-26T01:12:45.477Z,9.711657
2022-11-26T01:13:45.462Z,9.711617
2022-11-26T01:14:45.450Z,9.711654
2022-11-26T01:15:45.465Z,9.711648
2022-11-26T01:16:46.458Z,9.711619
2022-11-26T01:17:45.424Z,9.711602
2022-11-26T01:18:45.424Z,9.711635
2022-11-26T01:19:45.420Z,9.711693
2022-11-26T01:20:45.406Z,9.711677
2022-11-26T01:21:45.391Z,9.711732
2022-11-26T01:22:45.394Z,9.711721
2022-11-26T01:23:45.394Z,9.711774
2022-11-26T01:24:45.379Z,9.711712
2022-11-26T01:25:45.400Z,9.711706
2022-11-26T01:26:45.352Z,9.711754
2022-11-26T01:27:45.341Z,9.711623
2022-11-26T01:28:45.357Z,9.711760
2022-11-26T01:29:45.325Z,9.711745
2022-11-26T01:30:45.319Z,9.711841
2022-11-26T01:31:45.384Z,9.711731
2022-11-26T01:32:45.312Z,9.711772
2022-11-26T01:33:45.290Z,9.711800
2022-11-26T01:34:45.383Z,9.711831
2022-11-26T01:35:45.288Z,9.711862
2022-11-26T01:36:45.275Z,9.711890
2022-11-26T01:37:45.269Z,9.711842
2022-11-26T01:38:45.250Z,9.711808
2022-11-26T01:39:45.441Z,9.711726
2022-11-26T01:40:45.228Z,9.711698
2022-11-26T01:41:45.223Z,9.711835
2022-11-26T01:42:45.219Z,9.711880
2022-11-26T01:43:45.203Z,9.712001
2022-11-26T01:44:46.208Z,9.712079
2022-11-26T01:45:45.283Z,9.712040
2022-11-26T01:46:45.191Z,9.712052
2022-11-26T01:47:45.210Z,9.712121
2022-11-26T01:48:45.164Z,9.712187
2022-11-26T01:49:45.163Z,9.712049
2022-11-26T01:50:45.160Z,9.712050
2022-11-26T01:51:45.849Z,9.712349
2022-11-26T01:52:45.135Z,9.711530
2022-11-26T01:53:45.129Z,9.711571
2022-11-26T01:54:46.371Z,9.711604
2022-11-26T01:55:46.940Z,9.711654
2022-11-26T01:56:45.098Z,9.711615
2022-11-26T01:57:46.855Z,9.711640
2022-11-26T01:58:45.090Z,9.711631
2022-11-26T01:59:45.352Z,9.711685
2022-11-26T02:00:45.119Z,9.711611
2022-11-26T02:01:46.085Z,9.711446
2022-11-26T02:02:47.970Z,9.711474
2022-11-26T02:03:45.919Z,9.711412
2022-11-26T02:04:45.032Z,9.711561
2022-11-26T02:05:45.038Z,9.711607
2022-11-26T02:06:46.013Z,9.711471
2022-11-26T02:07:46.015Z,9.711609
2022-11-26T02:08:45.031Z,9.711643
2022-11-26T02:09:47.921Z,9.711705
2022-11-26T02:10:44.999Z,9.711602
2022-11-26T02:11:44.990Z,9.711559
2022-11-26T02:12:45.963Z,9.711575
2022-11-26T02:13:44.963Z,9.711609
2022-11-26T02:14:44.970Z,9.711579
2022-11-26T02:15:44.936Z,9.711494
2022-11-26T02:16:44.953Z,9.711571
2022-11-26T02:17:44.921Z,9.711622
2022-11-26T02:18:44.919Z,9.711549
2022-11-26T02:19:44.911Z,9.711555
2022-11-26T02:20:44.905Z,9.711617
2022-11-26T02:21:44.902Z,9.711685
2022-11-26T02:22:44.872Z,9.711665
2022-11-26T02:23:44.874Z,9.711702
2022-11-26T02:24:44.872Z,9.711677
2022-11-26T02:25:44.865Z,9.711797
2022-11-26T02:26:45.428Z,9.711804
2022-11-26T02:27:45.848Z,9.711742
2022-11-26T02:28:44.833Z,9.711876
2022-11-26T02:29:45.355Z,9.711869
2022-11-26T02:30:44.953Z,9.711764
2022-11-26T02:31:44.877Z,9.711809
2022-11-26T02:32:44.794Z,9.711829
2022-11-26T02:33:44.788Z,9.711732
2022-11-26T02:34:44.992Z,9.711832
2022-11-26T02:35:44.779Z,9.711725
2022-11-26T02:36:44.773Z,9.711680
2022-11-26T02:37:44.756Z,9.711813
2022-11-26T02:38:44.747Z,9.711645
2022-11-26T02:39:44.750Z,9.711627
2022-11-26T02:40:44.745Z,9.711691
2022-11-26T02:41:44.730Z,9.711780
2022-11-26T02:42:44.727Z,9.711649
2022-11-26T02:43:44.709Z,9.711609
2022-11-26T02:44:45.451Z,9.711687
2022-11-26T02:45:44.765Z,9.711630
2022-11-26T02:46:44.686Z,9.711759
2022-11-26T02:47:44.678Z,9.711515
2022-11-26T02:48:44.671Z,9.711911
2022-11-26T02:49:44.944Z,9.712410
2022-11-26T02:50:45.355Z,9.713102
2022-11-26T02:51:44.642Z,9.713388
2022-11-26T02:52:44.669Z,9.713200
2022-11-26T02:53:44.632Z,9.712499
2022-11-26T02:54:44.633Z,9.712162
2022-11-26T02:55:44.610Z,9.712062
2022-11-26T02:56:44.602Z,9.712112
2022-11-26T02:57:46.425Z,9.712065
2022-11-26T02:58:45.590Z,9.711816
2022-11-26T02:59:44.596Z,9.711798
2022-11-26T21:34:46.807Z,9.711923
2022-11-26T21:35:46.786Z,9.711923
2022-11-26T21:36:46.790Z,9.711923
2022-11-26T21:37:46.772Z,9.711923
2022-11-26T21:38:46.765Z,9.711923
2022-11-26T21:39:46.750Z,9.711923
2022-11-26T21:40:46.753Z,9.711923
2022-11-26T21:41:46.736Z,9.711677
2022-11-26T21:42:46.724Z,9.711677
2022-11-26T21:43:46.746Z,9.711522
2022-11-26T21:44:46.707Z,9.711742
2022-11-26T21:45:47.681Z,9.711804
2022-11-26T21:46:46.737Z,9.711791
2022-11-26T21:47:46.729Z,9.711714
2022-11-26T21:48:46.676Z,9.711954
2022-11-26T21:49:46.672Z,9.711757
2022-11-26T21:50:46.700Z,9.711473
2022-11-26T21:51:46.655Z,9.711244
2022-11-26T21:52:46.643Z,9.711348
2022-11-26T21:53:46.655Z,9.711840
2022-11-26T21:54:47.687Z,9.711542
2022-11-26T21:55:46.631Z,9.711505
2022-11-26T21:56:46.717Z,9.711606
2022-11-26T21:57:46.607Z,9.711816
2022-11-26T21:58:47.607Z,9.712089
2022-11-26T21:59:46.590Z,9.711603
2022-11-26T22:00:46.678Z,9.711589
2022-11-26T22:01:46.641Z,9.712278
2022-11-26T22:02:46.626Z,9.712191
2022-11-26T22:03:46.561Z,9.712172
2022-11-26T22:04:46.551Z,9.711955
2022-11-26T22:05:46.563Z,9.711476
2022-11-26T22:06:46.536Z,9.711487
2022-11-26T22:07:46.587Z,9.711608
2022-11-26T22:08:46.520Z,9.712446
2022-11-26T22:09:46.534Z,9.712358
2022-11-26T22:10:46.510Z,9.712068
2022-11-26T22:11:46.496Z,9.712134
2022-11-26T22:12:46.501Z,9.712263
2022-11-26T22:13:46.499Z,9.712226
2022-11-26T22:14:46.486Z,9.712006
2022-11-26T22:15:46.618Z,9.711783
2022-11-26T22:16:46.466Z,9.711782
2022-11-26T22:17:46.450Z,9.711144
2022-11-26T22:18:46.466Z,9.711743
2022-11-26T22:19:46.450Z,9.711626
2022-11-26T22:20:46.432Z,9.711597
2022-11-26T22:21:47.187Z,9.711610
2022-11-26T22:22:47.103Z,9.712240
2022-11-26T22:23:46.421Z,9.712228
2022-11-26T22:24:46.409Z,9.711946
2022-11-26T22:25:46.405Z,9.711993
2022-11-26T22:26:46.381Z,9.711952
2022-11-26T22:27:46.372Z,9.712088
2022-11-26T22:28:46.369Z,9.712008
2022-11-26T22:29:46.358Z,9.711876
2022-11-26T22:30:47.186Z,9.711965
2022-11-26T22:31:46.376Z,9.712041
2022-11-26T22:32:46.334Z,9.711932
2022-11-26T22:33:46.332Z,9.711738
2022-11-26T22:34:46.329Z,9.711724
2022-11-26T22:35:46.354Z,9.711666
2022-11-26T22:36:46.302Z,9.711737
2022-11-26T22:37:46.291Z,9.711611
2022-11-26T22:38:47.275Z,9.711284
2022-11-26T22:39:49.891Z,9.711146
2022-11-26T22:40:48.271Z,9.711296
2022-11-26T22:41:46.364Z,9.711429
2022-11-26T22:42:46.259Z,9.711472
2022-11-26T22:43:46.243Z,9.711319
2022-11-26T22:44:46.242Z,9.711157
2022-11-26T22:45:46.295Z,9.711245
2022-11-26T22:46:46.234Z,9.711350
2022-11-26T22:47:50.008Z,9.711248
2022-11-26T22:48:48.203Z,9.711366
2022-11-26T22:49:47.204Z,9.711547
2022-11-26T22:50:46.203Z,9.711374
2022-11-26T22:51:46.190Z,9.711255
2022-11-26T22:52:46.186Z,9.711367
2022-11-26T22:53:46.159Z,9.711603
2022-11-26T22:54:46.153Z,9.711704
2022-11-26T22:55:46.163Z,9.711798
2022-11-26T22:56:46.144Z,9.711755
2022-11-26T22:57:46.174Z,9.711821
2022-11-26T22:58:46.138Z,9.711758
2022-11-26T22:59:46.683Z,9.711882
2022-11-26T23:00:46.104Z,9.711738
2022-11-26T23:01:46.098Z,9.711635
2022-11-26T23:02:46.236Z,9.711663
2022-11-26T23:03:46.837Z,9.711687
2022-11-26T23:04:46.079Z,9.711761
2022-11-26T23:05:46.061Z,9.711714
2022-11-26T23:06:47.635Z,9.711740
2022-11-26T23:07:46.100Z,9.711912
2022-11-26T23:08:46.042Z,9.711564
2022-11-26T23:09:47.109Z,9.711661
2022-11-26T23:10:47.063Z,9.711761
2022-11-26T23:11:46.047Z,9.711765
2022-11-26T23:12:46.010Z,9.711505
2022-11-26T23:13:46.086Z,9.711731
2022-11-26T23:14:46.024Z,9.711677
2022-11-26T23:15:45.985Z,9.711557
2022-11-26T23:16:56.071Z,9.711614
2022-11-26T23:17:45.974Z,9.711621
2022-11-26T23:18:45.989Z,9.711648
2022-11-26T23:19:45.968Z,9.711647
2022-11-26T23:20:45.946Z,9.711620
2022-11-26T23:21:45.955Z,9.711643
2022-11-26T23:22:46.694Z,9.711631
2022-11-26T23:23:46.613Z,9.711592
2022-11-26T23:24:45.927Z,9.711617
2022-11-26T23:25:45.913Z,9.711646
2022-11-26T23:26:45.916Z,9.711563
2022-11-26T23:27:45.890Z,9.711591
2022-11-26T23:28:45.901Z,9.711579
2022-11-26T23:29:45.900Z,9.711613
2022-11-26T23:30:45.872Z,9.711641
2022-11-26T23:31:45.940Z,9.711644
2022-11-26T23:32:45.933Z,9.711600
2022-11-26T23:33:45.878Z,9.711608
2022-11-26T23:34:46.663Z,9.711628
2022-11-26T23:35:45.897Z,9.711627
2022-11-26T23:36:45.843Z,9.711588
2022-11-26T23:37:46.690Z,9.711619
2022-11-26T23:38:45.823Z,9.711681
2022-11-26T23:39:45.819Z,9.711686
2022-11-26T23:40:45.829Z,9.711699
2022-11-26T23:41:45.795Z,9.711584
2022-11-26T23:42:45.788Z,9.711629
2022-11-26T23:43:45.824Z,9.711632
2022-11-26T23:44:45.774Z,9.711563
2022-11-26T23:45:45.780Z,9.711663
2022-11-26T23:46:45.789Z,9.711617
2022-11-26T23:47:45.759Z,9.711563
2022-11-26T23:48:45.738Z,9.711578
2022-11-26T23:49:45.730Z,9.711582
2022-11-26T23:50:45.723Z,9.711626
2022-11-26T23:51:47.697Z,9.711569
2022-11-26T23:52:45.707Z,9.711638
2022-11-26T23:53:45.689Z,9.711624
2022-11-26T23:54:45.679Z,9.711684
2022-11-26T23:55:45.672Z,9.711628
2022-11-26T23:56:45.677Z,9.711696
2022-11-26T23:57:45.652Z,9.711710
2022-11-26T23:58:45.659Z,9.711533
2022-11-26T23:59:45.649Z,9.711486
